Smithfield - 24 Hour Table
Date & TimeSolar
Radiation
(W/m²)
Wind
Speed
(mph)
Wind
Direction
(degrees)
Air
Temperature
(°F)
Relative
Humidity
(%)
Precipitation
(inches)
2017/05/23 11:00 807 3.2 335 65.6 49 0.00
2017/05/23 10:00 699 3.8 325 62.9 56 0.00
2017/05/23 09:00 565 3.1 325 59.6 57 0.00
2017/05/23 08:00 382 1.7 285 55.9 61 0.00
2017/05/23 07:00 170 1.5 85 51.9 68 0.00
2017/05/23 06:00 13 3.0 85 48.6 79 0.00
2017/05/23 05:00 0 2.9 79 50.2 72 0.00
2017/05/23 04:00 0 4.0 20 52.5 62 0.00
2017/05/23 03:00 0 4.2 30 53.9 66 0.00
2017/05/23 02:00 0 3.5 42 53.8 63 0.00
2017/05/23 01:00 0 2.7 46 54.7 73 0.00
2017/05/23 00:00 0 3.5 48 58.2 62 0.00
2017/05/22 23:00 0 4.0 49 59.2 55 0.00
2017/05/22 22:00 0 4.0 59 61.0 47 0.00
2017/05/22 21:00 0 4.4 50 61.5 45 0.00
2017/05/22 20:00 35 3.1 30 65.4 50 0.00
2017/05/22 19:00 185 3.5 302 69.8 43 0.00
2017/05/22 18:00 369 4.5 313 70.8 38 0.00
2017/05/22 17:00 350 4.2 300 69.2 42 0.00
2017/05/22 16:00 546 6.0 258 70.0 43 0.00
2017/05/22 15:00 470 3.8 206 67.8 43 0.00
2017/05/22 14:00 806 4.4 239 67.8 53 0.00
2017/05/22 13:00 844 4.0 320 66.9 46 0.00
2017/05/22 12:00 861 3.7 75 65.0 45 0.00